createdAt,value
2023-07-11T00:00:10.789Z,1073.00
2023-07-11T00:01:10.852Z,1063.00
2023-07-11T00:02:10.984Z,1060.00
2023-07-11T00:03:11.025Z,1080.00
2023-07-11T00:04:11.011Z,1062.00
2023-07-11T00:05:11.010Z,1047.00
2023-07-11T00:06:11.049Z,1041.00
2023-07-11T00:07:11.093Z,1027.00
2023-07-11T00:08:11.198Z,1028.00
2023-07-11T00:09:11.182Z,1007.00
2023-07-11T00:10:11.229Z,1014.00
2023-07-11T00:11:11.262Z,1012.00
2023-07-11T00:12:11.306Z,1029.00
2023-07-11T00:13:11.293Z,1029.00
2023-07-11T00:14:11.367Z,1031.00
2023-07-11T00:15:11.287Z,1033.00
2023-07-11T00:16:11.475Z,1041.00
2023-07-11T00:17:11.291Z,1038.00
2023-07-11T00:18:11.267Z,1051.00
2023-07-11T00:19:11.255Z,1042.00
2023-07-11T00:20:11.250Z,1053.00
2023-07-11T00:21:11.235Z,1040.00
2023-07-11T00:22:11.234Z,1027.00
2023-07-11T00:23:11.222Z,1025.00
2023-07-11T00:24:11.217Z,1015.00
2023-07-11T00:25:11.211Z,1018.00
2023-07-11T00:26:11.236Z,1009.00
2023-07-11T00:27:11.286Z,1010.00
2023-07-11T00:28:11.319Z,996.00
2023-07-11T00:29:11.374Z,1010.00
2023-07-11T00:30:11.460Z,1001.00
2023-07-11T00:31:11.602Z,1010.00
2023-07-11T00:32:11.501Z,1008.00
2023-07-11T00:33:11.551Z,1005.00
2023-07-11T00:34:11.634Z,996.00
2023-07-11T00:35:11.647Z,989.00
2023-07-11T00:36:11.676Z,1003.00
2023-07-11T00:37:11.728Z,989.00
2023-07-11T00:38:11.789Z,995.00
2023-07-11T00:39:11.825Z,1014.00
2023-07-11T00:40:11.863Z,996.00
2023-07-11T00:41:11.899Z,991.00
2023-07-11T00:42:11.954Z,975.00
2023-07-11T00:43:11.998Z,967.00
2023-07-11T00:44:12.050Z,961.00
2023-07-11T00:45:12.099Z,959.00
2023-07-11T00:46:12.308Z,955.00
2023-07-11T00:47:12.211Z,955.00
2023-07-11T00:48:12.241Z,954.00
2023-07-11T00:49:12.291Z,952.00
2023-07-11T00:50:12.342Z,946.00
2023-07-11T00:51:12.374Z,952.00
2023-07-11T00:52:12.432Z,943.00
2023-07-11T00:53:12.477Z,944.00
2023-07-11T00:54:12.524Z,931.00
2023-07-11T00:55:12.567Z,932.00
2023-07-11T00:56:12.625Z,932.00
2023-07-11T00:57:12.665Z,918.00
2023-07-11T00:58:12.727Z,909.00
2023-07-11T00:59:12.774Z,922.00
2023-07-11T01:00:12.827Z,903.00
2023-07-11T01:01:12.925Z,918.00
2023-07-11T01:02:12.926Z,924.00
2023-07-11T01:03:13.098Z,911.00
2023-07-11T01:04:13.104Z,903.00
2023-07-11T01:05:13.085Z,916.00
2023-07-11T01:06:13.141Z,897.00
2023-07-11T01:07:13.190Z,901.00
2023-07-11T01:08:13.240Z,900.00
2023-07-11T01:09:13.284Z,928.00
2023-07-11T01:10:13.335Z,910.00
2023-07-11T01:11:13.389Z,904.00
2023-07-11T01:12:13.444Z,881.00
2023-07-11T01:13:13.507Z,889.00
2023-07-11T01:14:13.638Z,898.00
2023-07-11T01:15:13.608Z,884.00
2023-07-11T01:16:13.678Z,867.00
2023-07-11T01:17:13.709Z,858.00
2023-07-11T01:18:13.774Z,868.00
2023-07-11T01:19:13.821Z,859.00
2023-07-11T01:20:13.872Z,851.00
2023-07-11T01:21:13.915Z,858.00
2023-07-11T01:22:13.971Z,864.00
2023-07-11T01:23:14.034Z,869.00
2023-07-11T01:24:14.083Z,880.00
2023-07-11T01:25:14.163Z,863.00
2023-07-11T01:26:14.189Z,866.00
2023-07-11T01:27:14.238Z,849.00
2023-07-11T01:28:14.561Z,863.00
2023-07-11T01:29:14.330Z,853.00
2023-07-11T01:30:14.378Z,835.00
2023-07-11T01:31:14.429Z,841.00
2023-07-11T01:32:14.482Z,844.00
2023-07-11T01:33:14.530Z,845.00
2023-07-11T01:34:14.572Z,862.00
2023-07-11T01:35:14.614Z,847.00
2023-07-11T01:36:14.663Z,842.00
2023-07-11T01:37:14.735Z,838.00
2023-07-11T01:38:14.754Z,834.00
2023-07-11T01:39:14.796Z,838.00
2023-07-11T01:40:14.858Z,833.00
2023-07-11T01:41:14.888Z,827.00
2023-07-11T01:42:14.941Z,831.00
2023-07-11T01:43:14.990Z,823.00
2023-07-11T01:44:15.053Z,830.00
2023-07-11T01:45:15.096Z,827.00
2023-07-11T01:46:15.170Z,831.00
2023-07-11T01:47:15.197Z,830.00
2023-07-11T01:48:15.268Z,821.00
2023-07-11T01:49:15.306Z,820.00
2023-07-11T01:50:15.369Z,826.00
2023-07-11T01:51:15.411Z,831.00
2023-07-11T01:52:15.467Z,817.00
2023-07-11T01:53:15.513Z,820.00
2023-07-11T01:54:15.556Z,827.00
2023-07-11T01:55:15.611Z,814.00
2023-07-11T01:56:15.659Z,816.00
2023-07-11T01:57:15.720Z,812.00
2023-07-11T01:58:15.765Z,807.00
2023-07-11T01:59:15.812Z,802.00
2023-07-11T02:00:15.867Z,805.00
2023-07-11T02:01:15.944Z,808.00
2023-07-11T02:02:15.981Z,814.00
2023-07-11T02:03:16.162Z,793.00
2023-07-11T02:04:16.075Z,804.00
2023-07-11T02:05:16.119Z,809.00
2023-07-11T02:06:16.125Z,809.00
2023-07-11T02:07:16.131Z,810.00
2023-07-11T02:08:16.127Z,812.00
2023-07-11T02:09:16.129Z,799.00
2023-07-11T02:10:16.136Z,798.00
2023-07-11T02:11:16.150Z,807.00
2023-07-11T02:12:16.149Z,805.00
2023-07-11T02:13:16.141Z,800.00
2023-07-11T02:14:16.192Z,815.00
2023-07-11T02:15:16.133Z,805.00
2023-07-11T02:16:16.216Z,792.00
2023-07-11T02:17:16.385Z,791.00
2023-07-11T02:18:16.179Z,784.00
2023-07-11T02:19:16.171Z,790.00
2023-07-11T02:20:16.225Z,795.00
2023-07-11T02:21:16.288Z,780.00
2023-07-11T02:22:16.322Z,800.00
2023-07-11T02:23:16.431Z,789.00
2023-07-11T02:24:16.417Z,782.00
2023-07-11T02:25:16.461Z,781.00
2023-07-11T02:26:16.507Z,780.00
2023-07-11T02:27:16.560Z,771.00
2023-07-11T02:28:16.611Z,769.00
2023-07-11T02:29:16.654Z,765.00
2023-07-11T02:30:16.709Z,774.00
2023-07-11T02:31:16.767Z,775.00
2023-07-11T02:32:16.791Z,767.00
2023-07-11T02:33:16.844Z,767.00
2023-07-11T02:34:16.890Z,766.00
2023-07-11T02:35:16.923Z,757.00
2023-07-11T02:36:16.990Z,750.00
2023-07-11T02:37:17.023Z,757.00
2023-07-11T02:38:17.077Z,764.00
2023-07-11T02:39:17.124Z,759.00
2023-07-11T02:40:17.173Z,762.00
2023-07-11T02:41:17.213Z,761.00
2023-07-11T02:42:17.266Z,755.00
2023-07-11T02:43:17.308Z,779.00
2023-07-11T02:44:17.353Z,746.00
2023-07-11T02:45:17.404Z,743.00
2023-07-11T02:46:17.500Z,736.00
2023-07-11T02:47:17.501Z,727.00
2023-07-11T02:48:17.542Z,719.00
2023-07-11T02:49:17.596Z,741.00
2023-07-11T02:50:17.649Z,711.00
2023-07-11T02:51:17.697Z,713.00
2023-07-11T02:52:17.768Z,708.00
2023-07-11T02:53:17.815Z,688.00
2023-07-11T02:54:17.864Z,692.00
2023-07-11T02:55:17.933Z,694.00
2023-07-11T02:56:17.971Z,693.00
2023-07-11T02:57:18.039Z,676.00
2023-07-11T02:58:18.088Z,678.00
2023-07-11T02:59:18.094Z,678.00
2023-07-11T03:00:18.090Z,670.00
2023-07-11T03:01:18.163Z,674.00
2023-07-11T03:02:18.105Z,657.00
2023-07-11T03:03:18.119Z,658.00
2023-07-11T03:04:18.121Z,656.00
2023-07-11T03:05:18.148Z,649.00
2023-07-11T03:06:18.103Z,648.00
2023-07-11T03:07:18.245Z,651.00
2023-07-11T03:08:18.121Z,638.00
2023-07-11T03:09:18.136Z,632.00
2023-07-11T03:10:18.128Z,619.00
2023-07-11T03:11:18.171Z,611.00
2023-07-11T03:12:18.237Z,600.00
2023-07-11T03:13:18.246Z,599.00
2023-07-11T03:14:18.295Z,586.00
2023-07-11T03:15:18.263Z,577.00
2023-07-11T03:16:18.267Z,571.00
2023-07-11T03:17:18.321Z,558.00
2023-07-11T03:18:18.285Z,552.00
2023-07-11T03:19:18.290Z,536.00
2023-07-11T03:20:18.292Z,531.00
2023-07-11T03:21:18.302Z,519.00
2023-07-11T03:22:18.320Z,515.00
2023-07-11T03:23:18.335Z,500.00
2023-07-11T03:24:18.336Z,501.00
2023-07-11T03:25:18.403Z,500.00
2023-07-11T03:26:18.475Z,502.00
2023-07-11T03:27:18.543Z,500.00
2023-07-11T03:28:18.610Z,506.00
2023-07-11T03:29:18.700Z,500.00
2023-07-11T03:30:18.752Z,501.00
2023-07-11T03:31:18.877Z,503.00
2023-07-11T03:32:18.891Z,501.00
2023-07-11T03:33:18.969Z,500.00
2023-07-11T03:34:19.046Z,502.00
2023-07-11T03:35:19.108Z,501.00
2023-07-11T03:36:19.129Z,501.00
2023-07-11T03:37:19.127Z,501.00
2023-07-11T03:38:19.164Z,501.00
2023-07-11T03:39:19.155Z,501.00
2023-07-11T03:40:19.145Z,499.00
2023-07-11T03:41:19.160Z,505.00
2023-07-11T03:42:19.196Z,503.00
2023-07-11T03:43:19.177Z,501.00
2023-07-11T03:44:19.191Z,500.00
2023-07-11T03:45:19.277Z,500.00
2023-07-11T03:46:19.391Z,501.00
2023-07-11T03:47:19.424Z,501.00
2023-07-11T03:48:19.499Z,500.00
2023-07-11T03:49:19.564Z,501.00
2023-07-11T03:50:19.640Z,510.00
2023-07-11T03:51:19.716Z,507.00
2023-07-11T03:52:19.797Z,510.00
2023-07-11T03:53:19.891Z,508.00
2023-07-11T03:54:19.877Z,509.00
2023-07-11T03:55:19.886Z,509.00
2023-07-11T03:56:19.885Z,509.00
2023-07-11T03:57:19.902Z,510.00
2023-07-11T03:58:19.910Z,506.00
2023-07-11T03:59:19.929Z,509.00
2023-07-11T04:00:19.928Z,510.00
2023-07-11T04:01:19.984Z,508.00
2023-07-11T04:02:19.993Z,509.00
2023-07-11T04:03:20.143Z,512.00
2023-07-11T04:04:20.155Z,514.00
2023-07-11T04:05:20.246Z,509.00
2023-07-11T04:06:20.293Z,520.00
2023-07-11T04:07:20.362Z,527.00
2023-07-11T04:08:20.425Z,526.00
2023-07-11T04:09:20.503Z,529.00
2023-07-11T04:10:20.571Z,532.00
2023-07-11T04:11:20.631Z,534.00
2023-07-11T04:12:20.713Z,546.00
2023-07-11T04:13:20.788Z,543.00
2023-07-11T04:14:20.840Z,546.00
2023-07-11T04:15:20.899Z,547.00
2023-07-11T04:16:20.954Z,558.00
2023-07-11T04:17:21.070Z,552.00
2023-07-11T04:18:21.149Z,551.00
2023-07-11T04:19:21.472Z,555.00
2023-07-11T04:20:21.187Z,554.00
2023-07-11T04:21:21.241Z,546.00
2023-07-11T04:22:21.337Z,551.00
2023-07-11T04:23:21.434Z,558.00
2023-07-11T04:24:21.512Z,562.00
2023-07-11T04:25:21.539Z,562.00
2023-07-11T04:26:21.542Z,561.00
2023-07-11T04:27:21.554Z,564.00
2023-07-11T04:28:21.580Z,563.00
2023-07-11T04:29:21.593Z,568.00
2023-07-11T04:30:21.614Z,565.00
2023-07-11T04:31:21.742Z,565.00
2023-07-11T04:32:21.677Z,567.00
2023-07-11T04:33:21.654Z,565.00
2023-07-11T04:34:21.672Z,560.00
2023-07-11T04:35:21.708Z,572.00
2023-07-11T04:36:21.704Z,570.00
2023-07-11T04:37:21.744Z,572.00
2023-07-11T04:38:21.746Z,567.00
2023-07-11T04:39:21.776Z,571.00
2023-07-11T04:40:21.804Z,569.00
2023-07-11T04:41:21.835Z,573.00
2023-07-11T04:42:21.877Z,576.00
2023-07-11T04:43:21.928Z,577.00
2023-07-11T04:44:21.983Z,580.00
2023-07-11T04:45:21.992Z,572.00
2023-07-11T04:46:22.101Z,582.00
2023-07-11T04:47:22.049Z,581.00
2023-07-11T04:48:22.066Z,574.00
2023-07-11T04:49:22.090Z,583.00
2023-07-11T04:50:22.135Z,582.00
2023-07-11T04:51:22.202Z,579.00
2023-07-11T04:52:22.213Z,579.00
2023-07-11T04:53:22.250Z,580.00
2023-07-11T04:54:22.405Z,590.00
2023-07-11T04:55:22.289Z,581.00
2023-07-11T04:56:22.322Z,582.00
2023-07-11T04:57:22.365Z,585.00
2023-07-11T04:58:22.418Z,584.00
2023-07-11T04:59:22.431Z,580.00
2023-07-11T05:00:22.443Z,579.00
2023-07-11T05:01:22.988Z,585.00
2023-07-11T05:02:22.598Z,583.00
2023-07-11T05:03:22.518Z,590.00
2023-07-11T05:04:22.745Z,581.00
2023-07-11T05:05:22.595Z,577.00
2023-07-11T05:06:22.599Z,584.00
2023-07-11T05:07:22.629Z,578.00
2023-07-11T05:08:22.654Z,586.00
2023-07-11T05:09:22.669Z,594.00
2023-07-11T05:10:22.687Z,592.00
2023-07-11T05:11:22.709Z,592.00
2023-07-11T05:12:22.743Z,591.00
2023-07-11T05:13:22.754Z,589.00
2023-07-11T05:14:22.779Z,594.00
2023-07-11T05:15:22.838Z,594.00
2023-07-11T05:16:22.978Z,597.00
2023-07-11T05:17:22.902Z,594.00
2023-07-11T05:18:22.866Z,593.00
2023-07-11T05:19:22.867Z,592.00
2023-07-11T05:20:22.894Z,593.00
2023-07-11T05:21:22.921Z,602.00
2023-07-11T05:22:22.939Z,602.00
2023-07-11T05:23:22.935Z,603.00
2023-07-11T05:24:22.949Z,604.00
2023-07-11T05:25:22.958Z,602.00
2023-07-11T05:26:22.967Z,603.00
2023-07-11T05:27:22.984Z,603.00
2023-07-11T05:28:22.998Z,610.00
2023-07-11T05:29:23.008Z,602.00
2023-07-11T05:30:23.017Z,604.00
2023-07-11T05:31:23.156Z,604.00
2023-07-11T05:32:23.076Z,604.00
2023-07-11T05:33:23.066Z,610.00
2023-07-11T05:34:23.082Z,614.00
2023-07-11T05:35:23.095Z,602.00
2023-07-11T05:36:23.104Z,606.00
2023-07-11T05:37:23.130Z,611.00
2023-07-11T05:38:23.138Z,599.00
2023-07-11T05:39:23.156Z,604.00
2023-07-11T05:40:24.956Z,607.00
2023-07-11T05:41:23.178Z,606.00
2023-07-11T05:42:23.195Z,606.00
2023-07-11T05:43:23.210Z,607.00
2023-07-11T05:44:23.216Z,609.00
2023-07-11T05:45:23.230Z,614.00
2023-07-11T05:46:23.293Z,611.00
2023-07-11T05:47:23.402Z,616.00
2023-07-11T05:48:23.272Z,615.00
2023-07-11T05:49:23.292Z,616.00
2023-07-11T05:50:23.309Z,621.00
2023-07-11T05:51:23.330Z,619.00
2023-07-11T05:52:23.330Z,621.00
2023-07-11T05:53:23.355Z,628.00
2023-07-11T05:54:23.353Z,633.00
2023-07-11T05:55:23.370Z,633.00
2023-07-11T05:56:23.383Z,636.00
2023-07-11T05:57:23.415Z,633.00
2023-07-11T05:58:23.417Z,641.00
2023-07-11T05:59:23.432Z,643.00
2023-07-11T06:00:23.448Z,646.00
2023-07-11T06:01:23.483Z,649.00
2023-07-11T06:02:23.496Z,654.00
2023-07-11T06:03:23.523Z,649.00
2023-07-11T06:04:23.520Z,656.00
2023-07-11T06:05:23.525Z,658.00
2023-07-11T06:06:23.530Z,661.00
2023-07-11T06:07:23.547Z,664.00
2023-07-11T06:08:23.563Z,665.00
2023-07-11T06:09:23.580Z,662.00
2023-07-11T06:10:23.584Z,664.00
2023-07-11T06:11:23.604Z,671.00
2023-07-11T06:12:23.607Z,682.00
2023-07-11T06:13:23.640Z,664.00
2023-07-11T06:14:23.685Z,669.00
2023-07-11T06:15:23.651Z,665.00
2023-07-11T06:16:23.686Z,666.00
2023-07-11T06:17:23.688Z,664.00
2023-07-11T06:18:23.731Z,672.00
2023-07-11T06:19:23.766Z,666.00
2023-07-11T06:20:23.789Z,687.00
2023-07-11T06:21:23.820Z,667.00
2023-07-11T06:22:23.891Z,677.00
2023-07-11T06:23:23.961Z,689.00
2023-07-11T06:24:24.000Z,689.00
2023-07-11T06:25:24.071Z,691.00
2023-07-11T06:26:24.142Z,685.00
2023-07-11T06:27:24.210Z,694.00
2023-07-11T06:28:24.266Z,686.00
2023-07-11T06:29:24.338Z,690.00
2023-07-11T06:30:24.410Z,689.00
2023-07-11T06:31:24.535Z,697.00
2023-07-11T06:32:24.582Z,695.00
2023-07-11T06:33:24.660Z,705.00
2023-07-11T06:34:24.731Z,715.00
2023-07-11T06:35:24.811Z,709.00
2023-07-11T06:36:24.893Z,714.00
2023-07-11T06:37:24.974Z,725.00
2023-07-11T06:38:25.052Z,719.00
2023-07-11T06:39:25.128Z,721.00
2023-07-11T06:40:25.189Z,720.00
2023-07-11T06:41:25.284Z,709.00
2023-07-11T06:42:25.353Z,714.00
2023-07-11T06:43:25.439Z,734.00
2023-07-11T06:44:25.499Z,731.00
2023-07-11T06:45:25.598Z,731.00
2023-07-11T06:46:25.678Z,776.00
2023-07-11T06:47:25.780Z,784.00
2023-07-11T06:48:25.798Z,800.00
2023-07-11T06:49:25.876Z,806.00
2023-07-11T06:50:26.417Z,807.00
2023-07-11T06:51:26.014Z,793.00
2023-07-11T06:52:26.065Z,813.00
2023-07-11T06:53:26.138Z,818.00
2023-07-11T06:54:26.201Z,822.00
2023-07-11T06:55:26.278Z,792.00
2023-07-11T06:56:26.366Z,777.00
2023-07-11T06:57:26.432Z,796.00
2023-07-11T06:58:26.501Z,757.00
2023-07-11T06:59:26.565Z,739.00
2023-07-11T07:00:26.640Z,756.00
2023-07-11T07:01:36.768Z,746.00
2023-07-11T07:02:27.771Z,746.00
2023-07-11T07:03:26.802Z,722.00
2023-07-11T07:04:26.734Z,749.00
2023-07-11T07:05:26.717Z,783.00
2023-07-11T07:06:26.731Z,800.00
2023-07-11T07:07:26.712Z,847.00
2023-07-11T07:08:26.734Z,882.00
2023-07-11T07:09:27.829Z,954.00
2023-07-11T07:10:26.722Z,1005.00
2023-07-11T07:11:26.786Z,1105.00
2023-07-11T07:12:26.800Z,1237.00
2023-07-11T07:13:26.850Z,1279.00
2023-07-11T07:14:26.956Z,1348.00
2023-07-11T07:15:26.963Z,1520.00
2023-07-11T07:16:27.051Z,1627.00
2023-07-11T07:17:27.109Z,1729.00
2023-07-11T07:18:27.133Z,1860.00
2023-07-11T07:19:27.197Z,1871.00
2023-07-11T07:20:27.255Z,1803.00
2023-07-11T07:21:27.308Z,1807.00
2023-07-11T07:22:27.387Z,1817.00
2023-07-11T07:23:27.785Z,1878.00
2023-07-11T07:24:27.478Z,1862.00
2023-07-11T07:25:27.580Z,1890.00
2023-07-11T07:26:27.616Z,1899.00
2023-07-11T07:27:29.197Z,1882.00
2023-07-11T07:28:27.751Z,1869.00
2023-07-11T07:29:27.763Z,1888.00
2023-07-11T07:30:27.828Z,1908.00
2023-07-11T07:31:27.920Z,1907.00
2023-07-11T07:32:27.998Z,1849.00
2023-07-11T07:33:27.959Z,1843.00
2023-07-11T07:34:29.999Z,1781.00
2023-07-11T07:35:27.923Z,1754.00
2023-07-11T07:36:27.937Z,1745.00
2023-07-11T07:37:27.933Z,1739.00
2023-07-11T07:38:27.942Z,1740.00
2023-07-11T07:39:27.935Z,1722.00
2023-07-11T07:40:27.944Z,1706.00
2023-07-11T07:41:27.951Z,1679.00
2023-07-11T07:42:28.014Z,1678.00
2023-07-11T07:43:28.112Z,1660.00
2023-07-11T07:44:28.117Z,1647.00
2023-07-11T07:45:28.166Z,1644.00
2023-07-11T07:46:28.236Z,1648.00
2023-07-11T07:47:28.292Z,1632.00
2023-07-11T07:48:28.334Z,1617.00
2023-07-11T07:49:29.521Z,1611.00
2023-07-11T07:50:28.346Z,1612.00
2023-07-11T07:51:28.337Z,1612.00
2023-07-11T07:52:28.338Z,1574.00
2023-07-11T07:53:28.333Z,1540.00
2023-07-11T07:54:28.316Z,1527.00
2023-07-11T07:55:28.316Z,1529.00
2023-07-11T07:56:28.319Z,1494.00
2023-07-11T07:57:28.321Z,1520.00
2023-07-11T07:58:42.208Z,1473.00
2023-07-11T07:59:29.309Z,1473.00
2023-07-11T08:00:28.308Z,1473.00
2023-07-11T08:01:28.295Z,1448.00
2023-07-11T08:02:28.650Z,1390.00
2023-07-11T08:03:28.362Z,1357.00
2023-07-11T08:04:28.291Z,1292.00
2023-07-11T08:05:28.258Z,1295.00
2023-07-11T08:06:28.284Z,1319.00
2023-07-11T08:07:28.247Z,1346.00
2023-07-11T08:08:28.267Z,1349.00
2023-07-11T08:09:28.254Z,1345.00
2023-07-11T08:10:28.232Z,1337.00
2023-07-11T08:11:28.212Z,1302.00
2023-07-11T08:12:28.210Z,1293.00
2023-07-11T08:13:30.131Z,1274.00
2023-07-11T08:14:28.246Z,1275.00
2023-07-11T08:15:28.198Z,1276.00
2023-07-11T08:16:31.748Z,1279.00
2023-07-11T08:17:29.339Z,1275.00
2023-07-11T08:18:28.188Z,1273.00
2023-07-11T08:19:28.180Z,1278.00
2023-07-11T08:20:28.178Z,1249.00
2023-07-11T08:21:28.217Z,1263.00
2023-07-11T08:22:28.171Z,1282.00
2023-07-11T08:23:28.168Z,1298.00
2023-07-11T08:24:28.170Z,1299.00
2023-07-11T08:25:28.163Z,1304.00
2023-07-11T08:26:28.168Z,1124.00
2023-07-11T08:27:28.169Z,967.00
2023-07-11T08:28:28.159Z,803.00
2023-07-11T08:29:30.251Z,683.00
2023-07-11T08:30:28.177Z,668.00
2023-07-11T08:31:28.183Z,694.00
2023-07-11T08:32:28.171Z,734.00
2023-07-11T08:33:28.124Z,789.00
2023-07-11T08:34:28.111Z,878.00
2023-07-11T08:35:28.080Z,892.00
2023-07-11T08:36:28.076Z,847.00
2023-07-11T08:37:28.070Z,771.00
2023-07-11T08:38:28.051Z,779.00
2023-07-11T08:39:28.027Z,790.00
2023-07-11T08:40:41.989Z,820.00
2023-07-11T08:41:29.011Z,821.00
2023-07-11T08:42:28.011Z,820.00
2023-07-11T08:43:28.010Z,821.00
2023-07-11T08:44:27.983Z,827.00
2023-07-11T08:45:27.959Z,827.00
2023-07-11T08:46:27.987Z,831.00
2023-07-11T08:47:27.976Z,844.00
2023-07-11T08:48:27.924Z,862.00
2023-07-11T08:49:27.893Z,862.00
2023-07-11T08:50:27.886Z,907.00
2023-07-11T08:51:27.883Z,948.00
2023-07-11T08:52:27.840Z,953.00
2023-07-11T08:53:27.826Z,983.00
2023-07-11T08:54:27.834Z,1020.00
2023-07-11T08:55:27.804Z,1052.00
2023-07-11T08:56:27.781Z,1038.00
2023-07-11T08:57:27.778Z,1060.00
2023-07-11T08:58:27.752Z,1044.00
2023-07-11T08:59:27.742Z,1065.00
2023-07-11T09:00:27.727Z,1076.00
2023-07-11T09:01:27.714Z,1058.00
2023-07-11T09:02:27.760Z,1077.00
2023-07-11T09:03:27.839Z,1076.00
2023-07-11T09:04:27.677Z,1098.00
2023-07-11T09:05:27.672Z,1085.00
2023-07-11T09:06:27.645Z,1045.00
2023-07-11T09:07:27.641Z,1040.00
2023-07-11T09:08:27.629Z,1044.00
2023-07-11T09:09:27.626Z,1067.00
2023-07-11T09:10:42.356Z,1026.00
2023-07-11T09:11:28.602Z,1027.00
2023-07-11T09:12:27.579Z,1031.00
2023-07-11T09:13:27.755Z,1029.00
2023-07-11T09:14:27.579Z,1035.00
2023-07-11T09:15:27.566Z,1038.00
2023-07-11T09:16:27.576Z,1047.00
2023-07-11T09:17:27.574Z,1032.00
2023-07-11T09:18:27.530Z,1026.00
2023-07-11T09:19:27.514Z,1031.00
2023-07-11T09:20:27.494Z,1034.00
2023-07-11T09:21:27.492Z,988.00
2023-07-11T09:22:27.630Z,965.00
2023-07-11T09:23:38.025Z,955.00
2023-07-11T09:24:28.466Z,956.00
2023-07-11T09:25:28.293Z,961.00
2023-07-11T09:26:27.469Z,917.00
2023-07-11T09:27:27.429Z,901.00
2023-07-11T09:28:27.400Z,902.00
2023-07-11T09:29:27.397Z,930.00
2023-07-11T09:30:27.376Z,916.00
2023-07-11T09:31:27.429Z,890.00
2023-07-11T09:32:27.440Z,886.00
2023-07-11T09:33:27.393Z,868.00
2023-07-11T09:34:27.314Z,889.00
2023-07-11T09:35:27.335Z,850.00
2023-07-11T09:36:27.279Z,741.00
2023-07-11T09:37:27.270Z,752.00
2023-07-11T09:38:27.257Z,787.00
2023-07-11T09:39:27.253Z,727.00
2023-07-11T09:40:27.255Z,660.00
2023-07-11T09:41:37.423Z,652.00
2023-07-11T09:42:28.209Z,653.00
2023-07-11T09:43:27.219Z,656.00
2023-07-11T09:44:27.189Z,654.00
2023-07-11T09:45:27.210Z,650.00
2023-07-11T09:46:27.230Z,687.00
2023-07-11T09:47:27.242Z,747.00
2023-07-11T09:48:27.162Z,835.00
2023-07-11T09:49:27.130Z,838.00
2023-07-11T09:50:39.283Z,833.00
2023-07-11T09:51:28.117Z,828.00
2023-07-11T09:52:27.096Z,834.00
2023-07-11T09:53:27.078Z,773.00
2023-07-11T09:54:27.097Z,786.00
2023-07-11T09:55:27.064Z,790.00
2023-07-11T09:56:27.038Z,713.00
2023-07-11T09:57:27.036Z,696.00
2023-07-11T09:58:27.023Z,706.00
2023-07-11T09:59:27.897Z,664.00
2023-07-11T10:00:27.046Z,646.00
2023-07-11T10:01:27.030Z,630.00
2023-07-11T10:02:27.027Z,637.00
2023-07-11T10:03:26.960Z,637.00
2023-07-11T10:04:26.984Z,639.00
2023-07-11T10:05:26.943Z,645.00
2023-07-11T10:06:38.872Z,646.00
2023-07-11T10:07:27.905Z,623.00
2023-07-11T10:08:26.898Z,624.00
2023-07-11T10:09:26.889Z,621.00
2023-07-11T10:10:26.899Z,633.00
2023-07-11T10:11:26.872Z,639.00
2023-07-11T10:12:26.863Z,647.00
2023-07-11T10:13:37.893Z,640.00
2023-07-11T10:14:27.978Z,640.00
2023-07-11T10:15:26.832Z,639.00
2023-07-11T10:16:26.806Z,622.00
2023-07-11T10:17:26.952Z,622.00
2023-07-11T10:18:26.806Z,621.00
2023-07-11T10:19:26.742Z,621.00
2023-07-11T10:20:26.737Z,633.00
2023-07-11T10:21:31.914Z,639.00
2023-07-11T10:22:27.895Z,641.00
2023-07-11T10:23:26.668Z,646.00
2023-07-11T10:24:26.679Z,662.00
2023-07-11T10:25:26.647Z,725.00
2023-07-11T10:26:26.668Z,828.00
2023-07-11T10:27:26.618Z,867.00
2023-07-11T10:28:26.607Z,900.00
2023-07-11T10:29:26.609Z,916.00
2023-07-11T10:30:26.595Z,929.00
2023-07-11T10:31:26.641Z,975.00
2023-07-11T10:32:26.595Z,989.00
2023-07-11T10:33:30.878Z,1002.00
2023-07-11T10:34:27.547Z,1004.00
2023-07-11T10:35:26.522Z,1013.00
2023-07-11T10:36:26.523Z,1035.00
2023-07-11T10:37:26.524Z,1069.00
2023-07-11T10:38:26.487Z,1132.00
2023-07-11T10:39:26.477Z,1142.00
2023-07-11T10:40:27.928Z,1163.00
2023-07-11T10:41:26.446Z,1181.00
2023-07-11T10:42:26.426Z,1185.00
2023-07-11T10:43:26.432Z,1198.00
2023-07-11T10:44:26.397Z,1224.00
2023-07-11T10:45:26.390Z,1231.00
2023-07-11T10:46:26.409Z,1243.00
2023-07-11T10:47:26.396Z,1273.00
2023-07-11T10:48:26.343Z,1284.00
2023-07-11T10:49:26.341Z,1295.00
2023-07-11T10:50:26.312Z,1310.00
2023-07-11T10:51:27.646Z,1309.00
2023-07-11T10:52:26.259Z,1321.00
2023-07-11T10:53:26.243Z,1334.00
2023-07-11T10:54:26.233Z,1346.00
2023-07-11T10:55:26.224Z,1347.00
2023-07-11T10:56:26.185Z,1351.00
2023-07-11T10:57:33.934Z,1362.00
2023-07-11T10:58:27.157Z,1349.00
2023-07-11T10:59:26.138Z,1358.00
2023-07-11T11:00:26.122Z,1375.00
2023-07-11T11:01:26.156Z,1404.00
2023-07-11T11:02:26.161Z,1439.00
2023-07-11T11:03:27.509Z,1442.00
2023-07-11T11:04:26.075Z,1443.00
2023-07-11T11:05:26.075Z,1444.00
2023-07-11T11:06:27.509Z,1447.00
2023-07-11T11:07:25.991Z,1453.00
2023-07-11T11:08:25.966Z,1460.00
2023-07-11T11:09:25.970Z,1486.00
2023-07-11T11:10:25.931Z,1488.00
2023-07-11T11:11:25.912Z,1483.00
2023-07-11T11:12:25.904Z,1482.00
2023-07-11T11:13:27.198Z,1492.00
2023-07-11T11:14:25.880Z,1480.00
2023-07-11T11:15:25.848Z,1489.00
2023-07-11T11:17:25.853Z,1499.00
2023-07-11T11:18:25.864Z,1517.00
2023-07-11T11:19:25.851Z,1507.00
2023-07-11T11:20:25.770Z,1528.00
2023-07-11T11:21:27.878Z,1517.00
2023-07-11T11:22:25.722Z,1518.00
2023-07-11T11:23:25.718Z,1518.00
2023-07-11T11:24:25.689Z,1521.00
2023-07-11T11:25:27.991Z,1528.00
2023-07-11T11:26:26.650Z,1519.00
2023-07-11T11:27:25.635Z,1523.00
2023-07-11T11:28:25.623Z,1525.00
2023-07-11T11:29:25.601Z,1539.00
2023-07-11T11:30:25.737Z,1554.00
2023-07-11T11:31:25.713Z,1557.00
2023-07-11T11:32:25.550Z,1551.00
2023-07-11T11:33:25.533Z,1557.00
2023-07-11T11:34:25.499Z,1533.00
2023-07-11T11:35:25.480Z,1554.00
2023-07-11T11:36:25.473Z,1555.00
2023-07-11T11:37:25.448Z,1544.00
2023-07-11T11:38:25.452Z,1562.00
2023-07-11T11:39:25.518Z,1558.00
2023-07-11T11:40:25.545Z,1540.00
2023-07-11T11:41:25.558Z,1554.00
2023-07-11T11:42:25.548Z,1568.00
2023-07-11T11:43:29.304Z,1558.00
2023-07-11T11:46:28.339Z,1559.00
2023-07-11T11:49:41.622Z,1560.00
2023-07-11T11:50:55.866Z,1561.00
2023-07-11T11:51:26.378Z,1561.00
2023-07-11T11:53:25.267Z,1560.00
2023-07-11T11:54:25.238Z,1569.00
2023-07-11T11:55:25.234Z,1580.00
2023-07-11T11:56:25.570Z,1583.00
2023-07-11T11:57:25.179Z,1594.00
2023-07-11T11:58:25.369Z,1576.00
2023-07-11T11:59:25.142Z,1592.00
2023-07-11T12:00:25.107Z,1585.00
2023-07-11T12:01:25.101Z,1584.00
2023-07-11T12:02:25.138Z,1575.00
2023-07-11T12:03:25.038Z,1566.00
2023-07-11T12:04:25.158Z,1585.00
2023-07-11T12:05:25.009Z,1586.00
2023-07-11T12:06:24.971Z,1587.00
2023-07-11T12:07:24.951Z,1588.00
2023-07-11T12:08:24.937Z,1588.00
2023-07-11T12:09:24.911Z,1576.00
2023-07-11T12:10:24.891Z,1602.00
2023-07-11T12:11:24.877Z,1600.00
2023-07-11T12:12:24.845Z,1567.00
2023-07-11T12:13:24.827Z,1580.00
2023-07-11T12:14:24.834Z,1567.00
2023-07-11T12:15:24.807Z,1528.00
2023-07-11T12:16:39.944Z,1489.00
2023-07-11T12:17:25.956Z,1468.00
2023-07-11T12:18:24.802Z,1393.00
2023-07-11T12:19:24.792Z,1333.00
2023-07-11T12:20:24.762Z,1237.00
2023-07-11T12:21:24.771Z,1159.00
2023-07-11T12:22:24.726Z,1116.00
2023-07-11T12:23:38.806Z,1065.00
2023-07-11T12:24:42.265Z,1022.00
2023-07-11T12:25:25.686Z,1006.00
2023-07-11T12:26:24.656Z,957.00